TimeMST,TemperatureF,Dew PointF,Humidity,Sea Level PressureIn,VisibilityMPH,Wind Direction,Wind SpeedMPH,Gust SpeedMPH,PrecipitationIn,Events,Conditions,WindDirDegrees,DateUTC
12:51 AM,53.1,23.0,31,30.03,10.0,South,5.8,-,N/A,,Clear,190,2012-11-04 07:51:00
1:51 AM,48.9,21.9,35,30.04,10.0,Calm,Calm,-,N/A,,Clear,0,2012-11-04 08:51:00
2:51 AM,48.9,21.9,35,30.04,10.0,SE,3.5,-,N/A,,Clear,130,2012-11-04 09:51:00
3:51 AM,45.0,19.9,37,30.04,10.0,Calm,Calm,-,N/A,,Clear,0,2012-11-04 10:51:00
4:51 AM,44.1,19.9,38,30.05,10.0,Calm,Calm,-,N/A,,Clear,0,2012-11-04 11:51:00
5:51 AM,45.0,21.9,40,30.07,10.0,North,6.9,-,N/A,,Clear,10,2012-11-04 12:51:00
6:51 AM,44.1,21.0,40,30.10,10.0,Calm,Calm,-,N/A,,Clear,0,2012-11-04 13:51:00
7:51 AM,53.1,23.0,31,30.11,10.0,Calm,Calm,-,N/A,,Clear,0,2012-11-04 14:51:00
8:51 AM,55.9,24.1,29,30.13,10.0,Calm,Calm,-,N/A,,Clear,0,2012-11-04 15:51:00
9:51 AM,63.0,25.0,24,30.12,10.0,Calm,Calm,-,N/A,,Clear,0,2012-11-04 16:51:00
10:51 AM,72.0,26.1,18,30.12,10.0,Calm,Calm,-,N/A,,Clear,0,2012-11-04 17:51:00
11:51 AM,73.0,24.1,16,30.08,10.0,Calm,Calm,-,N/A,,Clear,0,2012-11-04 18:51:00
12:51 PM,77.0,23.0,13,30.05,10.0,Calm,Calm,-,N/A,,Clear,0,2012-11-04 19:51:00
1:51 PM,80.1,24.1,13,30.01,10.0,WSW,5.8,-,N/A,,Clear,240,2012-11-04 20:51:00
2:51 PM,82.0,21.0,10,30.00,10.0,West,5.8,-,N/A,,Clear,280,2012-11-04 21:51:00
3:51 PM,81.0,19.9,10,30.00,10.0,West,4.6,-,N/A,,Clear,260,2012-11-04 22:51:00
4:51 PM,80.1,21.0,11,30.00,10.0,WNW,3.5,-,N/A,,Clear,290,2012-11-04 23:51:00
5:51 PM,73.0,21.0,14,30.03,10.0,NW,3.5,-,N/A,,Clear,320,2012-11-05 00:51:00
6:51 PM,69.1,19.9,15,30.05,10.0,West,3.5,-,N/A,,Clear,270,2012-11-05 01:51:00
7:51 PM,64.0,19.0,18,30.05,10.0,NNW,5.8,-,N/A,,Clear,340,2012-11-05 02:51:00
8:51 PM,59.0,18.0,20,30.07,10.0,East,5.8,-,N/A,,Clear,100,2012-11-05 03:51:00
9:51 PM,55.9,18.0,23,30.07,10.0,Calm,Calm,-,N/A,,Clear,0,2012-11-05 04:51:00
10:51 PM,55.9,19.9,25,30.06,10.0,South,3.5,-,N/A,,Clear,180,2012-11-05 05:51:00
11:51 PM,53.1,18.0,25,30.08,10.0,Calm,Calm,-,N/A,,Clear,0,2012-11-05 06:51:00